Nanxiang, China
Current Conditions -  °F | °C
As of 4:30 AM on Sunday 21 Dec 2014 (Local Time) from ZSSS Reporting Station
Clear Clear  
Wind Chill: 29°   Ceiling: Unl
Heat Index: 36°   Visibility: 6mi
Dew Point: 27°   Wind: 9mph
Humidity: 70%   Direction: 330°NNW
Pressure: 30.39"   Gusts: NA
Location:  31.3°N, 121.28°E
Report Text: ZSSS 202030Z 33004MPS CAVOK 02/M03 Q1029 NOSIG
Loading
Personal Weather Stations






























Interactive Weather Map New forecast layout! Learn more

10-Day Weather Forecast

Advertisements
Track Severe Weather on mobile